Star Care — 9V9352 — position and weather

sailwx.info

Track history (hours):
 
Tides and Currents Weather Stations Pressure Air Temp Water Temp Dewpoint Dewpoint Depression Visibility Wind Speed Wind Dir Waves Ship Positions

Star Care

Last reported at 2017-Oct-13 07:35 UTC. Time now 2017-Oct-18 07:15 UTC.
Position N 25°32' W 113°43'.

Length 163 m; draft 7.6 m.

Type: Ship. MMSI: 566341000.

Date/timePositionNaut miles runAvg speedWind from/ knotsBaromVisibWave heightAir tempDewpointWater temp
2017-Oct-13 07:35N 25°32' W 113°43'222.4
2017-Oct-13 07:30N 25°34' W 113°44'7221.9
2017-Oct-13 04:14N 26°33' W 114°30'2022.2
2017-Oct-13 03:19N 26°50' W 114°43'17421.6
2017-Oct-12 19:17N 29°21' W 116°20'17021.4
2017-Oct-12 11:18N 31°60' W 117°32'621.1
2017-Oct-12 11:00N 32°06' W 117°34'1020.8
2017-Oct-12 10:30N 32°15' W 117°38'1020.5
2017-Oct-12 10:00N 32°25' W 117°43'1020.3
2017-Oct-12 09:30N 32°34' W 117°47'1020.5
2017-Oct-12 09:00N 32°44' W 117°52'1019.6
2017-Oct-12 08:30N 32°53' W 117°55'1020.2
2017-Oct-12 08:00N 33°03' W 117°60'1019.6
2017-Oct-12 07:30N 33°12' W 118°02'918.2
2017-Oct-12 07:00N 33°20' W 118°08'917.9
2017-Oct-12 06:30N 33°29' W 118°11'714.4
2017-Oct-12 06:00N 33°36' W 118°13'5 9.9
2017-Oct-12 05:30N 33°40' W 118°12'4 8.3
2017-Oct-12 05:00N 33°44' W 118°10'0 0.3
2017-Oct-12 04:28N 33°44' W 118°10'0 0.0
2017-Oct-12 03:52N 33°44' W 118°10'0 0.0
2017-Oct-12 03:22N 33°44' W 118°10'0 0.0
2017-Oct-12 02:58N 33°44' W 118°10'0 0.0
2017-Oct-12 02:28N 33°44' W 118°10'0 0.0
2017-Oct-12 01:52N 33°44' W 118°10'0 0.0
2017-Oct-12 01:28N 33°44' W 118°10'0 0.0
2017-Oct-12 00:58N 33°44' W 118°10'0 0.0
2017-Oct-12 00:28N 33°44' W 118°10'0 0.0
2017-Oct-11 23:58N 33°44' W 118°10'0 0.0
2017-Oct-11 23:28N 33°44' W 118°10'0 0.0
2017-Oct-11 22:58N 33°44' W 118°10'0 0.0
2017-Oct-11 22:28N 33°44' W 118°10'0 0.0
2017-Oct-11 21:58N 33°44' W 118°10'0 0.0
2017-Oct-11 21:28N 33°44' W 118°10'0 0.0
2017-Oct-11 20:58N 33°44' W 118°10'0 0.0
2017-Oct-11 20:28N 33°44' W 118°10'0 0.0
2017-Oct-11 19:58N 33°44' W 118°10'0 0.0
2017-Oct-11 19:28N 33°44' W 118°10'0 0.1
2017-Oct-11 18:58N 33°44' W 118°10'0 0.5
2017-Oct-11 18:30N 33°44' W 118°10'2 4.3
2017-Oct-11 18:00N 33°42' W 118°11'5 9.0
2017-Oct-11 17:30N 33°38' W 118°13'510.5
2017-Oct-11 17:00N 33°36' W 118°19'55 3.2
2017-Oct-10 23:59N 34°09' W 119°12'0 0.0
2017-Oct-10 23:29N 34°09' W 119°12'0 0.0
2017-Oct-10 22:59N 34°09' W 119°12'0 0.0
2017-Oct-10 22:29N 34°09' W 119°12'0 0.0
2017-Oct-10 21:59N 34°09' W 119°12'0 0.0
2017-Oct-10 21:29N 34°09' W 119°12'0 0.0
2017-Oct-10 20:59N 34°09' W 119°12'0 0.0
2017-Oct-10 20:29N 34°09' W 119°12'0 0.0
2017-Oct-10 19:59N 34°09' W 119°12'0 0.0
2017-Oct-10 19:29N 34°09' W 119°12'0 0.0
2017-Oct-10 18:59N 34°09' W 119°12'0 0.0
2017-Oct-10 18:29N 34°09' W 119°12'0 0.0
2017-Oct-10 17:56N 34°09' W 119°12'0 0.0
2017-Oct-10 17:29N 34°09' W 119°12'0 0.0
2017-Oct-10 16:59N 34°09' W 119°12'0 0.0
2017-Oct-10 16:29N 34°09' W 119°12'0 0.0
2017-Oct-10 15:59N 34°09' W 119°12'0 0.0
2017-Oct-10 15:29N 34°09' W 119°12'0 0.0
2017-Oct-10 14:59N 34°09' W 119°12'0 0.0
2017-Oct-10 13:59N 34°09' W 119°12'0 0.0
2017-Oct-10 13:29N 34°09' W 119°12'0 0.0
2017-Oct-10 12:59N 34°09' W 119°12'0 0.0
2017-Oct-10 12:29N 34°09' W 119°12'0 0.0
2017-Oct-10 11:59N 34°09' W 119°12'0 0.0
2017-Oct-10 11:29N 34°09' W 119°12'0 0.0
2017-Oct-10 10:59N 34°09' W 119°12'0 0.0
2017-Oct-10 10:29N 34°09' W 119°12'0 0.0
2017-Oct-10 09:59N 34°09' W 119°12'0 0.0
2017-Oct-10 09:29N 34°09' W 119°12'0 0.0
2017-Oct-10 08:59N 34°09' W 119°12'0 0.0
2017-Oct-10 08:29N 34°09' W 119°12'0 0.0
2017-Oct-10 07:59N 34°09' W 119°12'0 0.0
2017-Oct-10 07:29N 34°09' W 119°12'0 0.0
2017-Oct-10 06:59N 34°09' W 119°12'0 0.0
2017-Oct-10 06:29N 34°09' W 119°12'0 0.0
2017-Oct-10 05:59N 34°09' W 119°12'0 0.0
2017-Oct-10 05:29N 34°09' W 119°12'0 0.0
2017-Oct-10 04:59N 34°09' W 119°12'0 0.0
2017-Oct-10 04:29N 34°09' W 119°12'0 0.0
2017-Oct-10 03:59N 34°09' W 119°12'0 0.0
2017-Oct-10 03:26N 34°09' W 119°12'0 0.0
2017-Oct-10 02:53N 34°09' W 119°12'0 0.0
2017-Oct-10 02:26N 34°09' W 119°12'0 0.0
2017-Oct-10 01:59N 34°09' W 119°12'0 0.0
2017-Oct-10 01:29N 34°09' W 119°12'0 0.0
2017-Oct-10 00:59N 34°09' W 119°12'0 0.0
2017-Oct-10 00:29N 34°09' W 119°12'0 0.0
2017-Oct-09 23:59N 34°09' W 119°12'0 0.0
2017-Oct-09 23:29N 34°09' W 119°12'0 0.0
2017-Oct-09 22:56N 34°09' W 119°12'0 0.0
2017-Oct-09 22:26N 34°09' W 119°12'0 0.0
2017-Oct-09 21:59N 34°09' W 119°12'0 0.0
2017-Oct-09 21:26N 34°09' W 119°12'0 0.0
2017-Oct-09 20:59N 34°09' W 119°12'0 0.0
2017-Oct-09 20:29N 34°09' W 119°12'0 0.0
2017-Oct-09 19:59N 34°09' W 119°12'0 0.0
2017-Oct-09 19:29N 34°09' W 119°12'0 0.0
2017-Oct-09 18:53N 34°09' W 119°12'0 0.0
2017-Oct-09 18:29N 34°09' W 119°12'0 0.0
2017-Oct-09 17:59N 34°09' W 119°12'0 0.0
2017-Oct-09 17:05N 34°09' W 119°12'0 0.0
2017-Oct-09 16:59N 34°09' W 119°12'0 0.0
2017-Oct-09 16:20N 34°09' W 119°12'0 0.0
2017-Oct-09 15:53N 34°09' W 119°12'0 0.0
2017-Oct-09 14:35N 34°09' W 119°12'0 0.1
2017-Oct-09 14:29N 34°09' W 119°12'0 0.0
2017-Oct-09 11:38N 34°09' W 119°12'0 0.0
2017-Oct-09 10:11N 34°09' W 119°12'0 0.0
2017-Oct-09 09:59N 34°09' W 119°12'0 0.0
2017-Oct-09 09:17N 34°09' W 119°12'0 0.0
2017-Oct-09 08:59N 34°09' W 119°12'0 0.0
2017-Oct-09 05:23N 34°09' W 119°12'0 0.0
2017-Oct-09 04:56N 34°09' W 119°12'1 2.5
2017-Oct-09 04:30N 34°08' W 119°13'4 7.5
2017-Oct-09 03:59N 34°04' W 119°14'713.1
2017-Oct-09 03:29N 33°58' W 119°12'4 8.1
2017-Oct-09 03:01N 33°55' W 119°09'918.7
2017-Oct-09 02:31N 33°48' W 119°02'918.0
2017-Oct-09 02:00N 33°40' W 118°56'917.8
2017-Oct-09 01:30N 33°33' W 118°49'918.3
2017-Oct-09 01:00N 33°26' W 118°43'918.4
2017-Oct-09 00:31N 33°18' W 118°36'1018.2
2017-Oct-08 23:59N 33°11' W 118°30'917.9
2017-Oct-08 23:31N 33°04' W 118°23'918.4
2017-Oct-08 23:00N 32°56' W 118°17'918.7
2017-Oct-08 22:31N 32°49' W 118°10'918.4
2017-Oct-08 22:01N 32°42' W 118°04'918.2
2017-Oct-08 21:31N 32°34' W 117°57'918.0
2017-Oct-08 21:00N 32°27' W 117°52'918.3
2017-Oct-08 20:31N 32°18' W 117°47'918.1
2017-Oct-08 20:00N 32°10' W 117°44'917.9
2017-Oct-08 19:31N 32°02' W 117°39'917.6
2017-Oct-08 19:00N 31°54' W 117°36'917.9
2017-Oct-08 18:30N 31°45' W 117°32'918.2
2017-Oct-08 18:01N 31°37' W 117°27'1018.9
2017-Oct-08 17:30N 31°28' W 117°23'918.8
2017-Oct-08 17:00N 31°19' W 117°19'1019.0
2017-Oct-08 16:29N 31°10' W 117°15'918.5
2017-Oct-08 16:00N 31°02' W 117°10'918.5
2017-Oct-08 15:29N 30°53' W 117°06'918.9
2017-Oct-08 15:00N 30°45' W 117°02'918.5
2017-Oct-08 14:31N 30°36' W 116°58'918.6
2017-Oct-08 14:00N 30°28' W 116°54'918.7
2017-Oct-08 13:30N 30°19' W 116°50'1018.7
2017-Oct-08 12:58N 30°10' W 116°45'918.9
2017-Oct-08 12:30N 30°02' W 116°41'1019.0
2017-Oct-08 12:00N 29°53' W 116°37'919.1
2017-Oct-08 11:30N 29°44' W 116°33'918.4
2017-Oct-08 11:00N 29°36' W 116°29'1318.8
2017-Oct-08 10:20N 29°24' W 116°23'718.7
2017-Oct-08 09:59N 29°18' W 116°20'918.7
2017-Oct-08 09:30N 29°10' W 116°16'1418.5
2017-Oct-08 08:45N 28°57' W 116°10'  
Track history (hours):
 
Tides and Currents Weather Stations Pressure Air Temp Water Temp Dewpoint Dewpoint Depression Visibility Wind Speed Wind Dir Waves Ship Positions

Star Care

Last reported at 2017-Oct-13 07:35 UTC. Time now 2017-Oct-18 07:15 UTC.
Position N 25°32' W 113°43'.

Length 163 m; draft 7.6 m.

Type: Ship. MMSI: 566341000.

Date/timePositionNaut miles runAvg speedWind from/ knotsBaromVisibWave heightAir tempDewpointWater temp
2017-Oct-13 07:35N 25°32' W 113°43'222.4
2017-Oct-13 07:30N 25°34' W 113°44'7221.9
2017-Oct-13 04:14N 26°33' W 114°30'2022.2
2017-Oct-13 03:19N 26°50' W 114°43'17421.6
2017-Oct-12 19:17N 29°21' W 116°20'17021.4
2017-Oct-12 11:18N 31°60' W 117°32'621.1
2017-Oct-12 11:00N 32°06' W 117°34'1020.8
2017-Oct-12 10:30N 32°15' W 117°38'1020.5
2017-Oct-12 10:00N 32°25' W 117°43'1020.3
2017-Oct-12 09:30N 32°34' W 117°47'1020.5
2017-Oct-12 09:00N 32°44' W 117°52'1019.6
2017-Oct-12 08:30N 32°53' W 117°55'1020.2
2017-Oct-12 08:00N 33°03' W 117°60'1019.6
2017-Oct-12 07:30N 33°12' W 118°02'918.2
2017-Oct-12 07:00N 33°20' W 118°08'917.9
2017-Oct-12 06:30N 33°29' W 118°11'714.4
2017-Oct-12 06:00N 33°36' W 118°13'5 9.9
2017-Oct-12 05:30N 33°40' W 118°12'4 8.3
2017-Oct-12 05:00N 33°44' W 118°10'0 0.3
2017-Oct-12 04:28N 33°44' W 118°10'0 0.0
2017-Oct-12 03:52N 33°44' W 118°10'0 0.0
2017-Oct-12 03:22N 33°44' W 118°10'0 0.0
2017-Oct-12 02:58N 33°44' W 118°10'0 0.0
2017-Oct-12 02:28N 33°44' W 118°10'0 0.0
2017-Oct-12 01:52N 33°44' W 118°10'0 0.0
2017-Oct-12 01:28N 33°44' W 118°10'0 0.0
2017-Oct-12 00:58N 33°44' W 118°10'0 0.0
2017-Oct-12 00:28N 33°44' W 118°10'0 0.0
2017-Oct-11 23:58N 33°44' W 118°10'0 0.0
2017-Oct-11 23:28N 33°44' W 118°10'0 0.0
2017-Oct-11 22:58N 33°44' W 118°10'0 0.0
2017-Oct-11 22:28N 33°44' W 118°10'0 0.0
2017-Oct-11 21:58N 33°44' W 118°10'0 0.0
2017-Oct-11 21:28N 33°44' W 118°10'0 0.0
2017-Oct-11 20:58N 33°44' W 118°10'0 0.0
2017-Oct-11 20:28N 33°44' W 118°10'0 0.0
2017-Oct-11 19:58N 33°44' W 118°10'0 0.0
2017-Oct-11 19:28N 33°44' W 118°10'0 0.1
2017-Oct-11 18:58N 33°44' W 118°10'0 0.5
2017-Oct-11 18:30N 33°44' W 118°10'2 4.3
2017-Oct-11 18:00N 33°42' W 118°11'5 9.0
2017-Oct-11 17:30N 33°38' W 118°13'510.5
2017-Oct-11 17:00N 33°36' W 118°19'55 3.2
2017-Oct-10 23:59N 34°09' W 119°12'0 0.0
2017-Oct-10 23:29N 34°09' W 119°12'0 0.0
2017-Oct-10 22:59N 34°09' W 119°12'0 0.0
2017-Oct-10 22:29N 34°09' W 119°12'0 0.0
2017-Oct-10 21:59N 34°09' W 119°12'0 0.0
2017-Oct-10 21:29N 34°09' W 119°12'0 0.0
2017-Oct-10 20:59N 34°09' W 119°12'0 0.0
2017-Oct-10 20:29N 34°09' W 119°12'0 0.0
2017-Oct-10 19:59N 34°09' W 119°12'0 0.0
2017-Oct-10 19:29N 34°09' W 119°12'0 0.0
2017-Oct-10 18:59N 34°09' W 119°12'0 0.0
2017-Oct-10 18:29N 34°09' W 119°12'0 0.0
2017-Oct-10 17:56N 34°09' W 119°12'0 0.0
2017-Oct-10 17:29N 34°09' W 119°12'0 0.0
2017-Oct-10 16:59N 34°09' W 119°12'0 0.0
2017-Oct-10 16:29N 34°09' W 119°12'0 0.0
2017-Oct-10 15:59N 34°09' W 119°12'0 0.0
2017-Oct-10 15:29N 34°09' W 119°12'0 0.0
2017-Oct-10 14:59N 34°09' W 119°12'0 0.0
2017-Oct-10 13:59N 34°09' W 119°12'0 0.0
2017-Oct-10 13:29N 34°09' W 119°12'0 0.0
2017-Oct-10 12:59N 34°09' W 119°12'0 0.0
2017-Oct-10 12:29N 34°09' W 119°12'0 0.0
2017-Oct-10 11:59N 34°09' W 119°12'0 0.0
2017-Oct-10 11:29N 34°09' W 119°12'0 0.0
2017-Oct-10 10:59N 34°09' W 119°12'0 0.0
2017-Oct-10 10:29N 34°09' W 119°12'0 0.0
2017-Oct-10 09:59N 34°09' W 119°12'0 0.0
2017-Oct-10 09:29N 34°09' W 119°12'0 0.0
2017-Oct-10 08:59N 34°09' W 119°12'0 0.0
2017-Oct-10 08:29N 34°09' W 119°12'0 0.0
2017-Oct-10 07:59N 34°09' W 119°12'0 0.0
2017-Oct-10 07:29N 34°09' W 119°12'0 0.0
2017-Oct-10 06:59N 34°09' W 119°12'0 0.0
2017-Oct-10 06:29N 34°09' W 119°12'0 0.0
2017-Oct-10 05:59N 34°09' W 119°12'0 0.0
2017-Oct-10 05:29N 34°09' W 119°12'0 0.0
2017-Oct-10 04:59N 34°09' W 119°12'0 0.0
2017-Oct-10 04:29N 34°09' W 119°12'0 0.0
2017-Oct-10 03:59N 34°09' W 119°12'0 0.0
2017-Oct-10 03:26N 34°09' W 119°12'0 0.0
2017-Oct-10 02:53N 34°09' W 119°12'0 0.0
2017-Oct-10 02:26N 34°09' W 119°12'0 0.0
2017-Oct-10 01:59N 34°09' W 119°12'0 0.0
2017-Oct-10 01:29N 34°09' W 119°12'0 0.0
2017-Oct-10 00:59N 34°09' W 119°12'0 0.0
2017-Oct-10 00:29N 34°09' W 119°12'0 0.0
2017-Oct-09 23:59N 34°09' W 119°12'0 0.0
2017-Oct-09 23:29N 34°09' W 119°12'0 0.0
2017-Oct-09 22:56N 34°09' W 119°12'0 0.0
2017-Oct-09 22:26N 34°09' W 119°12'0 0.0
2017-Oct-09 21:59N 34°09' W 119°12'0 0.0
2017-Oct-09 21:26N 34°09' W 119°12'0 0.0
2017-Oct-09 20:59N 34°09' W 119°12'0 0.0
2017-Oct-09 20:29N 34°09' W 119°12'0 0.0
2017-Oct-09 19:59N 34°09' W 119°12'0 0.0
2017-Oct-09 19:29N 34°09' W 119°12'0 0.0
2017-Oct-09 18:53N 34°09' W 119°12'0 0.0
2017-Oct-09 18:29N 34°09' W 119°12'0 0.0
2017-Oct-09 17:59N 34°09' W 119°12'0 0.0
2017-Oct-09 17:05N 34°09' W 119°12'0 0.0
2017-Oct-09 16:59N 34°09' W 119°12'0 0.0
2017-Oct-09 16:20N 34°09' W 119°12'0 0.0
2017-Oct-09 15:53N 34°09' W 119°12'0 0.0
2017-Oct-09 14:35N 34°09' W 119°12'0 0.1
2017-Oct-09 14:29N 34°09' W 119°12'0 0.0
2017-Oct-09 11:38N 34°09' W 119°12'0 0.0
2017-Oct-09 10:11N 34°09' W 119°12'0 0.0
2017-Oct-09 09:59N 34°09' W 119°12'0 0.0
2017-Oct-09 09:17N 34°09' W 119°12'0 0.0
2017-Oct-09 08:59N 34°09' W 119°12'0 0.0
2017-Oct-09 05:23N 34°09' W 119°12'0 0.0
2017-Oct-09 04:56N 34°09' W 119°12'1 2.5
2017-Oct-09 04:30N 34°08' W 119°13'4 7.5
2017-Oct-09 03:59N 34°04' W 119°14'713.1
2017-Oct-09 03:29N 33°58' W 119°12'4 8.1
2017-Oct-09 03:01N 33°55' W 119°09'918.7
2017-Oct-09 02:31N 33°48' W 119°02'918.0
2017-Oct-09 02:00N 33°40' W 118°56'917.8
2017-Oct-09 01:30N 33°33' W 118°49'918.3
2017-Oct-09 01:00N 33°26' W 118°43'918.4
2017-Oct-09 00:31N 33°18' W 118°36'1018.2
2017-Oct-08 23:59N 33°11' W 118°30'917.9
2017-Oct-08 23:31N 33°04' W 118°23'918.4
2017-Oct-08 23:00N 32°56' W 118°17'918.7
2017-Oct-08 22:31N 32°49' W 118°10'918.4
2017-Oct-08 22:01N 32°42' W 118°04'918.2
2017-Oct-08 21:31N 32°34' W 117°57'918.0
2017-Oct-08 21:00N 32°27' W 117°52'918.3
2017-Oct-08 20:31N 32°18' W 117°47'918.1
2017-Oct-08 20:00N 32°10' W 117°44'917.9
2017-Oct-08 19:31N 32°02' W 117°39'917.6
2017-Oct-08 19:00N 31°54' W 117°36'917.9
2017-Oct-08 18:30N 31°45' W 117°32'918.2
2017-Oct-08 18:01N 31°37' W 117°27'1018.9
2017-Oct-08 17:30N 31°28' W 117°23'918.8
2017-Oct-08 17:00N 31°19' W 117°19'1019.0
2017-Oct-08 16:29N 31°10' W 117°15'918.5
2017-Oct-08 16:00N 31°02' W 117°10'918.5
2017-Oct-08 15:29N 30°53' W 117°06'918.9
2017-Oct-08 15:00N 30°45' W 117°02'918.5
2017-Oct-08 14:31N 30°36' W 116°58'918.6
2017-Oct-08 14:00N 30°28' W 116°54'918.7
2017-Oct-08 13:30N 30°19' W 116°50'1018.7
2017-Oct-08 12:58N 30°10' W 116°45'918.9
2017-Oct-08 12:30N 30°02' W 116°41'1019.0
2017-Oct-08 12:00N 29°53' W 116°37'919.1
2017-Oct-08 11:30N 29°44' W 116°33'918.4
2017-Oct-08 11:00N 29°36' W 116°29'1318.8
2017-Oct-08 10:20N 29°24' W 116°23'718.7
2017-Oct-08 09:59N 29°18' W 116°20'918.7
2017-Oct-08 09:30N 29°10' W 116°16'1418.5
2017-Oct-08 08:45N 28°57' W 116°10'  

Dump ship's entire track history